sensor_id;sensor_type;location;lat;lon;timestamp;P1;durP1;ratioP1;P2;durP2;ratioP2
1959;SDS011;980;43.794;11.212;2024-02-21T08:22:43;28.00;;;24.00;;
1959;SDS011;980;43.794;11.212;2024-02-21T08:25:08;29.50;;;25.75;;
1959;SDS011;980;43.794;11.212;2024-02-21T08:27:34;25.25;;;24.75;;
1959;SDS011;980;43.794;11.212;2024-02-21T08:29:59;31.25;;;26.25;;
1959;SDS011;980;43.794;11.212;2024-02-21T08:32:24;28.75;;;28.00;;
1959;SDS011;980;43.794;11.212;2024-02-21T08:34:50;37.50;;;30.00;;
1959;SDS011;980;43.794;11.212;2024-02-21T08:37:15;28.75;;;25.25;;
1959;SDS011;980;43.794;11.212;2024-02-21T08:39:40;25.25;;;23.75;;
1959;SDS011;980;43.794;11.212;2024-02-21T08:42:05;26.75;;;25.00;;
1959;SDS011;980;43.794;11.212;2024-02-21T08:44:31;27.75;;;25.25;;
1959;SDS011;980;43.794;11.212;2024-02-21T08:46:56;24.75;;;24.75;;
1959;SDS011;980;43.794;11.212;2024-02-21T08:49:21;25.50;;;25.00;;
1959;SDS011;980;43.794;11.212;2024-02-21T08:51:47;24.50;;;22.75;;
1959;SDS011;980;43.794;11.212;2024-02-21T08:54:12;28.00;;;24.25;;
1959;SDS011;980;43.794;11.212;2024-02-21T08:56:37;23.50;;;23.00;;
1959;SDS011;980;43.794;11.212;2024-02-21T08:59:02;29.50;;;26.75;;
1959;SDS011;980;43.794;11.212;2024-02-21T09:01:28;23.75;;;23.25;;
1959;SDS011;980;43.794;11.212;2024-02-21T09:03:54;26.25;;;22.50;;
1959;SDS011;980;43.794;11.212;2024-02-21T09:06:19;25.50;;;23.00;;
1959;SDS011;980;43.794;11.212;2024-02-21T09:08:45;27.00;;;25.75;;
1959;SDS011;980;43.794;11.212;2024-02-21T09:11:10;26.00;;;23.50;;
1959;SDS011;980;43.794;11.212;2024-02-21T09:13:35;24.25;;;22.25;;
1959;SDS011;980;43.794;11.212;2024-02-21T09:16:01;27.25;;;23.75;;
1959;SDS011;980;43.794;11.212;2024-02-21T09:18:26;29.25;;;23.00;;
1959;SDS011;980;43.794;11.212;2024-02-21T09:20:51;34.00;;;30.75;;
1959;SDS011;980;43.794;11.212;2024-02-21T09:23:17;23.75;;;22.00;;
1959;SDS011;980;43.794;11.212;2024-02-21T09:25:44;26.00;;;24.75;;
1959;SDS011;980;43.794;11.212;2024-02-21T09:28:10;26.00;;;25.50;;
1959;SDS011;980;43.794;11.212;2024-02-21T09:30:36;25.00;;;22.00;;
1959;SDS011;980;43.794;11.212;2024-02-21T09:33:03;29.25;;;27.00;;
1959;SDS011;980;43.794;11.212;2024-02-21T09:35:30;39.25;;;35.50;;
1959;SDS011;980;43.794;11.212;2024-02-21T09:37:55;29.00;;;27.75;;
1959;SDS011;980;43.794;11.212;2024-02-21T09:40:20;25.75;;;22.00;;
1959;SDS011;980;43.794;11.212;2024-02-21T09:42:46;28.25;;;27.25;;
1959;SDS011;980;43.794;11.212;2024-02-21T09:45:19;28.00;;;26.25;;
1959;SDS011;980;43.794;11.212;2024-02-21T09:50:16;24.25;;;23.25;;
1959;SDS011;980;43.794;11.212;2024-02-21T09:52:43;27.25;;;24.75;;
1959;SDS011;980;43.794;11.212;2024-02-21T09:55:09;28.75;;;26.75;;
1959;SDS011;980;43.794;11.212;2024-02-21T09:57:37;24.75;;;22.00;;
1959;SDS011;980;43.794;11.212;2024-02-21T10:00:02;24.00;;;22.33;;
1959;SDS011;980;43.794;11.212;2024-02-21T10:02:32;21.00;;;20.25;;
1959;SDS011;980;43.794;11.212;2024-02-21T10:04:57;21.33;;;21.33;;
1959;SDS011;980;43.794;11.212;2024-02-21T10:07:23;23.00;;;21.00;;
1959;SDS011;980;43.794;11.212;2024-02-21T10:09:59;22.50;;;22.00;;
1959;SDS011;980;43.794;11.212;2024-02-21T10:12:25;23.75;;;22.25;;
1959;SDS011;980;43.794;11.212;2024-02-21T10:14:59;24.00;;;22.00;;
1959;SDS011;980;43.794;11.212;2024-02-21T10:17:24;25.00;;;21.00;;
1959;SDS011;980;43.794;11.212;2024-02-21T10:19:50;21.00;;;20.33;;
1959;SDS011;980;43.794;11.212;2024-02-21T10:22:17;20.40;;;19.00;;
1959;SDS011;980;43.794;11.212;2024-02-21T10:24:42;16.75;;;16.00;;
1959;SDS011;980;43.794;11.212;2024-02-21T10:27:08;18.00;;;18.00;;
1959;SDS011;980;43.794;11.212;2024-02-21T10:29:34;18.25;;;18.25;;
1959;SDS011;980;43.794;11.212;2024-02-21T10:34:32;21.75;;;20.75;;
1959;SDS011;980;43.794;11.212;2024-02-21T10:37:06;17.33;;;16.67;;
1959;SDS011;980;43.794;11.212;2024-02-21T10:39:32;21.00;;;19.50;;
1959;SDS011;980;43.794;11.212;2024-02-21T10:41:59;19.33;;;18.33;;
1959;SDS011;980;43.794;11.212;2024-02-21T10:44:26;18.67;;;17.00;;
1959;SDS011;980;43.794;11.212;2024-02-21T10:46:53;18.33;;;15.67;;
1959;SDS011;980;43.794;11.212;2024-02-21T10:49:22;16.00;;;13.67;;
1959;SDS011;980;43.794;11.212;2024-02-21T10:51:50;20.00;;;18.33;;
1959;SDS011;980;43.794;11.212;2024-02-21T10:57:03;14.00;;;13.25;;
1959;SDS011;980;43.794;11.212;2024-02-21T10:59:29;16.75;;;15.25;;
1959;SDS011;980;43.794;11.212;2024-02-21T11:01:56;17.00;;;16.75;;
1959;SDS011;980;43.794;11.212;2024-02-21T11:04:22;16.00;;;16.00;;
1959;SDS011;980;43.794;11.212;2024-02-21T11:06:47;19.67;;;18.67;;
1959;SDS011;980;43.794;11.212;2024-02-21T11:09:13;21.00;;;19.00;;
1959;SDS011;980;43.794;11.212;2024-02-21T11:11:39;15.33;;;15.00;;
1959;SDS011;980;43.794;11.212;2024-02-21T11:16:34;26.25;;;25.50;;
1959;SDS011;980;43.794;11.212;2024-02-21T11:21:56;25.50;;;22.50;;
1959;SDS011;980;43.794;11.212;2024-02-21T11:24:40;26.75;;;24.25;;
1959;SDS011;980;43.794;11.212;2024-02-21T11:29:40;25.75;;;24.25;;
1959;SDS011;980;43.794;11.212;2024-02-21T11:32:06;22.50;;;22.00;;
1959;SDS011;980;43.794;11.212;2024-02-21T11:34:34;22.50;;;19.25;;
1959;SDS011;980;43.794;11.212;2024-02-21T11:36:59;19.00;;;17.50;;
1959;SDS011;980;43.794;11.212;2024-02-21T11:39:25;22.50;;;19.75;;
1959;SDS011;980;43.794;11.212;2024-02-21T11:42:03;18.00;;;16.50;;
1959;SDS011;980;43.794;11.212;2024-02-21T11:44:29;13.50;;;13.50;;
1959;SDS011;980;43.794;11.212;2024-02-21T11:46:54;20.75;;;16.75;;
1959;SDS011;980;43.794;11.212;2024-02-21T11:49:20;16.00;;;15.00;;
1959;SDS011;980;43.794;11.212;2024-02-21T11:51:45;52.00;;;42.25;;
1959;SDS011;980;43.794;11.212;2024-02-21T11:54:11;29.50;;;29.00;;
1959;SDS011;980;43.794;11.212;2024-02-21T11:56:38;11.25;;;10.50;;
1959;SDS011;980;43.794;11.212;2024-02-21T11:59:03;10.50;;;10.50;;
1959;SDS011;980;43.794;11.212;2024-02-21T12:01:30;10.50;;;9.25;;
1959;SDS011;980;43.794;11.212;2024-02-21T12:03:56;9.00;;;8.00;;
1959;SDS011;980;43.794;11.212;2024-02-21T12:06:21;8.00;;;8.00;;
1959;SDS011;980;43.794;11.212;2024-02-21T12:08:47;11.25;;;9.75;;
1959;SDS011;980;43.794;11.212;2024-02-21T12:11:22;8.25;;;8.25;;
1959;SDS011;980;43.794;11.212;2024-02-21T12:14:00;10.25;;;10.25;;
1959;SDS011;980;43.794;11.212;2024-02-21T12:16:29;6.75;;;6.75;;
1959;SDS011;980;43.794;11.212;2024-02-21T12:18:58;7.75;;;7.75;;
1959;SDS011;980;43.794;11.212;2024-02-21T12:21:27;5.00;;;5.00;;
1959;SDS011;980;43.794;11.212;2024-02-21T12:23:55;10.50;;;8.00;;
1959;SDS011;980;43.794;11.212;2024-02-21T12:26:20;6.50;;;5.25;;
1959;SDS011;980;43.794;11.212;2024-02-21T12:28:45;7.50;;;7.00;;
1959;SDS011;980;43.794;11.212;2024-02-21T12:31:11;7.50;;;6.00;;
1959;SDS011;980;43.794;11.212;2024-02-21T12:33:36;5.50;;;5.50;;
1959;SDS011;980;43.794;11.212;2024-02-21T12:36:02;15.75;;;15.75;;
1959;SDS011;980;43.794;11.212;2024-02-21T12:38:29;7.00;;;7.00;;
1959;SDS011;980;43.794;11.212;2024-02-21T12:40:54;10.25;;;8.75;;
1959;SDS011;980;43.794;11.212;2024-02-21T12:43:19;7.50;;;7.25;;
1959;SDS011;980;43.794;11.212;2024-02-21T12:45:45;6.25;;;6.25;;
1959;SDS011;980;43.794;11.212;2024-02-21T12:48:10;5.50;;;5.50;;
1959;SDS011;980;43.794;11.212;2024-02-21T12:50:35;6.00;;;5.50;;
1959;SDS011;980;43.794;11.212;2024-02-21T12:53:01;8.00;;;7.00;;
1959;SDS011;980;43.794;11.212;2024-02-21T12:55:26;13.75;;;9.50;;
1959;SDS011;980;43.794;11.212;2024-02-21T12:57:51;12.75;;;12.50;;
1959;SDS011;980;43.794;11.212;2024-02-21T13:00:17;10.25;;;10.25;;
1959;SDS011;980;43.794;11.212;2024-02-21T13:02:42;12.00;;;10.00;;
1959;SDS011;980;43.794;11.212;2024-02-21T13:05:07;9.25;;;9.00;;
1959;SDS011;980;43.794;11.212;2024-02-21T13:07:33;8.25;;;8.25;;
1959;SDS011;980;43.794;11.212;2024-02-21T13:09:58;12.00;;;8.50;;
1959;SDS011;980;43.794;11.212;2024-02-21T13:12:24;8.00;;;8.00;;
1959;SDS011;980;43.794;11.212;2024-02-21T13:14:51;10.00;;;9.75;;
1959;SDS011;980;43.794;11.212;2024-02-21T13:17:16;9.50;;;8.75;;
1959;SDS011;980;43.794;11.212;2024-02-21T13:19:42;3.00;;;3.00;;
1959;SDS011;980;43.794;11.212;2024-02-21T13:22:07;7.25;;;6.50;;
1959;SDS011;980;43.794;11.212;2024-02-21T13:24:33;8.00;;;8.00;;
1959;SDS011;980;43.794;11.212;2024-02-21T13:26:58;8.75;;;8.00;;
1959;SDS011;980;43.794;11.212;2024-02-21T13:29:24;8.25;;;7.00;;
1959;SDS011;980;43.794;11.212;2024-02-21T13:31:49;8.25;;;6.75;;
1959;SDS011;980;43.794;11.212;2024-02-21T13:34:15;8.25;;;8.00;;
1959;SDS011;980;43.794;11.212;2024-02-21T13:36:40;9.25;;;7.00;;
1959;SDS011;980;43.794;11.212;2024-02-21T13:39:05;6.25;;;6.25;;
1959;SDS011;980;43.794;11.212;2024-02-21T13:41:32;8.00;;;6.75;;
1959;SDS011;980;43.794;11.212;2024-02-21T13:43:58;6.25;;;6.25;;
1959;SDS011;980;43.794;11.212;2024-02-21T13:46:25;12.00;;;9.00;;
1959;SDS011;980;43.794;11.212;2024-02-21T13:48:52;8.50;;;8.00;;
1959;SDS011;980;43.794;11.212;2024-02-21T13:51:17;9.00;;;8.25;;
1959;SDS011;980;43.794;11.212;2024-02-21T13:53:45;6.75;;;6.00;;
1959;SDS011;980;43.794;11.212;2024-02-21T13:56:10;10.75;;;8.50;;
1959;SDS011;980;43.794;11.212;2024-02-21T13:58:35;6.00;;;6.00;;
1959;SDS011;980;43.794;11.212;2024-02-21T14:01:02;3.75;;;3.75;;
1959;SDS011;980;43.794;11.212;2024-02-21T14:03:28;6.25;;;5.50;;
1959;SDS011;980;43.794;11.212;2024-02-21T14:05:53;6.75;;;6.75;;
1959;SDS011;980;43.794;11.212;2024-02-21T14:08:18;5.50;;;5.50;;
1959;SDS011;980;43.794;11.212;2024-02-21T14:10:43;4.00;;;4.00;;
1959;SDS011;980;43.794;11.212;2024-02-21T14:13:09;6.75;;;6.75;;
1959;SDS011;980;43.794;11.212;2024-02-21T14:15:34;4.50;;;4.50;;
1959;SDS011;980;43.794;11.212;2024-02-21T14:17:59;7.75;;;7.00;;
1959;SDS011;980;43.794;11.212;2024-02-21T14:20:24;9.00;;;5.50;;
1959;SDS011;980;43.794;11.212;2024-02-21T14:22:50;6.00;;;6.00;;
1959;SDS011;980;43.794;11.212;2024-02-21T14:25:15;3.75;;;3.75;;
1959;SDS011;980;43.794;11.212;2024-02-21T14:27:41;22.50;;;18.25;;
1959;SDS011;980;43.794;11.212;2024-02-21T14:30:07;11.50;;;10.50;;
1959;SDS011;980;43.794;11.212;2024-02-21T14:32:35;29.75;;;27.00;;
1959;SDS011;980;43.794;11.212;2024-02-21T14:35:01;20.50;;;19.00;;
1959;SDS011;980;43.794;11.212;2024-02-21T14:37:26;11.50;;;11.50;;
1959;SDS011;980;43.794;11.212;2024-02-21T14:39:51;7.25;;;7.25;;
1959;SDS011;980;43.794;11.212;2024-02-21T14:42:16;9.75;;;8.00;;
1959;SDS011;980;43.794;11.212;2024-02-21T14:44:42;8.75;;;7.50;;
1959;SDS011;980;43.794;11.212;2024-02-21T14:47:07;8.25;;;7.25;;
1959;SDS011;980;43.794;11.212;2024-02-21T14:49:33;13.50;;;10.00;;
1959;SDS011;980;43.794;11.212;2024-02-21T14:51:58;8.00;;;8.00;;
1959;SDS011;980;43.794;11.212;2024-02-21T14:54:24;10.00;;;8.00;;
1959;SDS011;980;43.794;11.212;2024-02-21T14:56:49;9.25;;;7.00;;
1959;SDS011;980;43.794;11.212;2024-02-21T14:59:15;6.00;;;6.00;;
1959;SDS011;980;43.794;11.212;2024-02-21T15:01:41;7.00;;;7.00;;
1959;SDS011;980;43.794;11.212;2024-02-21T15:04:07;9.00;;;8.00;;
1959;SDS011;980;43.794;11.212;2024-02-21T15:06:33;7.00;;;6.75;;
1959;SDS011;980;43.794;11.212;2024-02-21T15:09:01;8.00;;;7.25;;
1959;SDS011;980;43.794;11.212;2024-02-21T15:11:26;9.75;;;7.50;;
1959;SDS011;980;43.794;11.212;2024-02-21T15:13:51;7.00;;;6.75;;
1959;SDS011;980;43.794;11.212;2024-02-21T15:16:17;7.00;;;6.50;;
1959;SDS011;980;43.794;11.212;2024-02-21T15:18:42;8.00;;;8.00;;
1959;SDS011;980;43.794;11.212;2024-02-21T15:21:07;11.50;;;9.00;;
1959;SDS011;980;43.794;11.212;2024-02-21T15:23:35;8.25;;;8.00;;
1959;SDS011;980;43.794;11.212;2024-02-21T15:26:01;8.25;;;8.00;;
1959;SDS011;980;43.794;11.212;2024-02-21T15:28:26;10.00;;;10.00;;
1959;SDS011;980;43.794;11.212;2024-02-21T15:30:53;12.25;;;10.50;;
1959;SDS011;980;43.794;11.212;2024-02-21T15:33:19;9.50;;;9.00;;
1959;SDS011;980;43.794;11.212;2024-02-21T15:35:44;8.25;;;7.75;;
1959;SDS011;980;43.794;11.212;2024-02-21T15:38:09;14.75;;;10.50;;
1959;SDS011;980;43.794;11.212;2024-02-21T15:40:35;9.25;;;9.25;;
1959;SDS011;980;43.794;11.212;2024-02-21T15:43:01;10.00;;;10.00;;
1959;SDS011;980;43.794;11.212;2024-02-21T15:45:26;10.50;;;9.25;;
1959;SDS011;980;43.794;11.212;2024-02-21T15:47:51;10.50;;;10.00;;
1959;SDS011;980;43.794;11.212;2024-02-21T15:50:19;11.75;;;9.00;;
1959;SDS011;980;43.794;11.212;2024-02-21T15:52:44;10.00;;;9.00;;
1959;SDS011;980;43.794;11.212;2024-02-21T15:55:09;10.25;;;10.25;;
1959;SDS011;980;43.794;11.212;2024-02-21T15:57:37;9.00;;;8.25;;
1959;SDS011;980;43.794;11.212;2024-02-21T16:00:02;9.50;;;8.00;;
1959;SDS011;980;43.794;11.212;2024-02-21T16:02:28;7.50;;;7.50;;
1959;SDS011;980;43.794;11.212;2024-02-21T16:04:54;8.00;;;7.00;;
1959;SDS011;980;43.794;11.212;2024-02-21T16:07:21;10.50;;;8.00;;
1959;SDS011;980;43.794;11.212;2024-02-21T16:09:46;10.25;;;9.50;;
1959;SDS011;980;43.794;11.212;2024-02-21T16:12:12;9.25;;;9.00;;
1959;SDS011;980;43.794;11.212;2024-02-21T16:14:37;8.25;;;8.25;;
1959;SDS011;980;43.794;11.212;2024-02-21T16:17:03;7.50;;;7.50;;
1959;SDS011;980;43.794;11.212;2024-02-21T16:19:30;9.00;;;7.75;;
1959;SDS011;980;43.794;11.212;2024-02-21T16:21:57;7.25;;;7.25;;
1959;SDS011;980;43.794;11.212;2024-02-21T16:24:22;7.50;;;7.50;;
1959;SDS011;980;43.794;11.212;2024-02-21T16:26:47;10.00;;;10.00;;
1959;SDS011;980;43.794;11.212;2024-02-21T16:29:13;10.25;;;8.75;;
1959;SDS011;980;43.794;11.212;2024-02-21T16:31:38;15.75;;;11.00;;
1959;SDS011;980;43.794;11.212;2024-02-21T16:34:07;14.50;;;12.75;;
1959;SDS011;980;43.794;11.212;2024-02-21T16:36:32;13.00;;;12.00;;
1959;SDS011;980;43.794;11.212;2024-02-21T16:38:58;14.50;;;14.00;;
1959;SDS011;980;43.794;11.212;2024-02-21T16:41:24;29.00;;;27.00;;
1959;SDS011;980;43.794;11.212;2024-02-21T16:43:50;37.00;;;32.50;;
1959;SDS011;980;43.794;11.212;2024-02-21T16:46:15;17.25;;;13.50;;
1959;SDS011;980;43.794;11.212;2024-02-21T16:48:40;20.25;;;18.75;;
1959;SDS011;980;43.794;11.212;2024-02-21T16:51:06;15.25;;;12.25;;
1959;SDS011;980;43.794;11.212;2024-02-21T16:53:32;13.50;;;12.75;;
1959;SDS011;980;43.794;11.212;2024-02-21T16:55:57;15.25;;;15.25;;
1959;SDS011;980;43.794;11.212;2024-02-21T16:58:24;12.50;;;10.00;;
1959;SDS011;980;43.794;11.212;2024-02-21T17:00:49;12.75;;;12.75;;
1959;SDS011;980;43.794;11.212;2024-02-21T17:03:14;7.00;;;6.00;;
1959;SDS011;980;43.794;11.212;2024-02-21T17:05:45;12.50;;;12.00;;
1959;SDS011;980;43.794;11.212;2024-02-21T17:08:10;14.00;;;12.00;;
1959;SDS011;980;43.794;11.212;2024-02-21T17:10:35;16.00;;;12.50;;
1959;SDS011;980;43.794;11.212;2024-02-21T17:13:01;18.50;;;13.50;;
1959;SDS011;980;43.794;11.212;2024-02-21T17:15:27;15.75;;;14.00;;
1959;SDS011;980;43.794;11.212;2024-02-21T17:17:52;19.00;;;16.25;;
1959;SDS011;980;43.794;11.212;2024-02-21T17:20:17;20.75;;;18.50;;
1959;SDS011;980;43.794;11.212;2024-02-21T17:22:43;23.25;;;18.75;;
1959;SDS011;980;43.794;11.212;2024-02-21T17:25:08;22.75;;;18.75;;
1959;SDS011;980;43.794;11.212;2024-02-21T17:27:35;17.50;;;17.00;;
1959;SDS011;980;43.794;11.212;2024-02-21T17:30:01;17.75;;;16.50;;
1959;SDS011;980;43.794;11.212;2024-02-21T17:32:29;20.50;;;18.00;;
1959;SDS011;980;43.794;11.212;2024-02-21T17:34:54;12.50;;;12.50;;
1959;SDS011;980;43.794;11.212;2024-02-21T17:37:20;17.50;;;15.00;;
1959;SDS011;980;43.794;11.212;2024-02-21T17:39:45;14.00;;;13.00;;
1959;SDS011;980;43.794;11.212;2024-02-21T17:42:13;16.00;;;13.25;;
1959;SDS011;980;43.794;11.212;2024-02-21T17:44:38;14.00;;;13.50;;
1959;SDS011;980;43.794;11.212;2024-02-21T17:47:07;16.50;;;13.75;;
1959;SDS011;980;43.794;11.212;2024-02-21T17:49:32;14.50;;;12.00;;
1959;SDS011;980;43.794;11.212;2024-02-21T17:51:58;9.00;;;8.75;;
1959;SDS011;980;43.794;11.212;2024-02-21T17:54:23;12.25;;;11.25;;
1959;SDS011;980;43.794;11.212;2024-02-21T17:56:48;12.75;;;11.75;;
1959;SDS011;980;43.794;11.212;2024-02-21T17:59:14;11.75;;;11.75;;
1959;SDS011;980;43.794;11.212;2024-02-21T18:01:39;12.00;;;11.00;;
1959;SDS011;980;43.794;11.212;2024-02-21T18:04:05;13.25;;;13.00;;
1959;SDS011;980;43.794;11.212;2024-02-21T18:06:31;13.25;;;12.25;;
1959;SDS011;980;43.794;11.212;2024-02-21T18:08:58;15.50;;;13.00;;
1959;SDS011;980;43.794;11.212;2024-02-21T18:11:23;13.50;;;13.00;;
1959;SDS011;980;43.794;11.212;2024-02-21T18:13:49;11.25;;;11.25;;
1959;SDS011;980;43.794;11.212;2024-02-21T18:16:14;13.00;;;12.75;;
1959;SDS011;980;43.794;11.212;2024-02-21T18:18:40;11.75;;;11.00;;
1959;SDS011;980;43.794;11.212;2024-02-21T18:21:05;12.50;;;11.50;;
1959;SDS011;980;43.794;11.212;2024-02-21T18:23:32;11.25;;;8.75;;
1959;SDS011;980;43.794;11.212;2024-02-21T18:25:57;11.25;;;11.00;;
1959;SDS011;980;43.794;11.212;2024-02-21T18:28:23;11.00;;;10.50;;
1959;SDS011;980;43.794;11.212;2024-02-21T18:30:49;14.75;;;12.50;;
1959;SDS011;980;43.794;11.212;2024-02-21T18:33:14;16.75;;;13.75;;
1959;SDS011;980;43.794;11.212;2024-02-21T18:35:39;15.00;;;13.50;;
1959;SDS011;980;43.794;11.212;2024-02-21T18:38:05;16.75;;;13.75;;
1959;SDS011;980;43.794;11.212;2024-02-21T18:40:30;13.00;;;12.00;;
1959;SDS011;980;43.794;11.212;2024-02-21T18:42:55;13.75;;;11.75;;
1959;SDS011;980;43.794;11.212;2024-02-21T18:45:23;14.00;;;11.50;;
1959;SDS011;980;43.794;11.212;2024-02-21T18:47:48;16.50;;;11.50;;
1959;SDS011;980;43.794;11.212;2024-02-21T18:50:13;17.25;;;12.50;;
1959;SDS011;980;43.794;11.212;2024-02-21T18:52:38;13.00;;;13.00;;
1959;SDS011;980;43.794;11.212;2024-02-21T18:55:04;16.00;;;12.25;;
1959;SDS011;980;43.794;11.212;2024-02-21T18:57:30;17.25;;;16.00;;
1959;SDS011;980;43.794;11.212;2024-02-21T18:59:56;18.00;;;15.25;;
1959;SDS011;980;43.794;11.212;2024-02-21T19:02:22;17.25;;;12.75;;
1959;SDS011;980;43.794;11.212;2024-02-21T19:04:48;11.50;;;11.50;;
1959;SDS011;980;43.794;11.212;2024-02-21T19:07:13;15.75;;;14.75;;
1959;SDS011;980;43.794;11.212;2024-02-21T19:09:39;19.25;;;16.00;;
1959;SDS011;980;43.794;11.212;2024-02-21T19:12:05;17.00;;;16.00;;
1959;SDS011;980;43.794;11.212;2024-02-21T19:14:31;12.75;;;12.75;;
1959;SDS011;980;43.794;11.212;2024-02-21T19:16:56;19.25;;;18.00;;
1959;SDS011;980;43.794;11.212;2024-02-21T19:19:21;21.50;;;18.50;;
1959;SDS011;980;43.794;11.212;2024-02-21T19:21:46;18.75;;;17.50;;
1959;SDS011;980;43.794;11.212;2024-02-21T19:24:13;19.00;;;17.00;;
1959;SDS011;980;43.794;11.212;2024-02-21T19:26:38;26.00;;;21.00;;
1959;SDS011;980;43.794;11.212;2024-02-21T19:29:04;20.00;;;20.00;;
1959;SDS011;980;43.794;11.212;2024-02-21T19:31:30;20.00;;;20.00;;
1959;SDS011;980;43.794;11.212;2024-02-21T19:33:55;26.50;;;18.25;;
1959;SDS011;980;43.794;11.212;2024-02-21T19:36:20;22.25;;;21.50;;
1959;SDS011;980;43.794;11.212;2024-02-21T19:38:47;23.00;;;21.50;;
1959;SDS011;980;43.794;11.212;2024-02-21T19:41:14;23.50;;;21.75;;
1959;SDS011;980;43.794;11.212;2024-02-21T19:43:40;27.25;;;23.00;;
1959;SDS011;980;43.794;11.212;2024-02-21T19:46:05;25.75;;;24.00;;
1959;SDS011;980;43.794;11.212;2024-02-21T19:48:30;23.50;;;21.50;;
1959;SDS011;980;43.794;11.212;2024-02-21T19:50:56;26.75;;;25.75;;
1959;SDS011;980;43.794;11.212;2024-02-21T19:53:22;30.75;;;22.00;;
1959;SDS011;980;43.794;11.212;2024-02-21T19:55:47;26.00;;;23.00;;
1959;SDS011;980;43.794;11.212;2024-02-21T19:58:13;21.50;;;21.50;;
1959;SDS011;980;43.794;11.212;2024-02-21T20:00:38;26.25;;;24.25;;
1959;SDS011;980;43.794;11.212;2024-02-21T20:03:04;27.00;;;24.25;;
1959;SDS011;980;43.794;11.212;2024-02-21T20:05:30;24.75;;;23.25;;
1959;SDS011;980;43.794;11.212;2024-02-21T20:07:56;24.50;;;24.00;;
1959;SDS011;980;43.794;11.212;2024-02-21T20:10:22;25.50;;;22.75;;
1959;SDS011;980;43.794;11.212;2024-02-21T20:12:47;24.75;;;22.75;;
1959;SDS011;980;43.794;11.212;2024-02-21T20:15:13;30.50;;;25.75;;
1959;SDS011;980;43.794;11.212;2024-02-21T20:17:40;30.50;;;26.00;;
1959;SDS011;980;43.794;11.212;2024-02-21T20:20:07;31.00;;;28.75;;
1959;SDS011;980;43.794;11.212;2024-02-21T20:22:33;33.00;;;28.25;;
1959;SDS011;980;43.794;11.212;2024-02-21T20:24:59;30.25;;;29.75;;
1959;SDS011;980;43.794;11.212;2024-02-21T20:27:24;31.50;;;25.75;;
1959;SDS011;980;43.794;11.212;2024-02-21T20:29:49;29.50;;;26.00;;
1959;SDS011;980;43.794;11.212;2024-02-21T20:32:15;28.50;;;24.50;;
1959;SDS011;980;43.794;11.212;2024-02-21T20:34:40;31.00;;;26.50;;
1959;SDS011;980;43.794;11.212;2024-02-21T20:37:06;33.75;;;26.75;;
1959;SDS011;980;43.794;11.212;2024-02-21T20:39:32;29.75;;;27.50;;
1959;SDS011;980;43.794;11.212;2024-02-21T20:41:57;29.50;;;29.50;;
1959;SDS011;980;43.794;11.212;2024-02-21T20:44:23;27.50;;;26.00;;
1959;SDS011;980;43.794;11.212;2024-02-21T20:46:52;29.25;;;26.25;;
1959;SDS011;980;43.794;11.212;2024-02-21T20:49:17;38.50;;;31.00;;
1959;SDS011;980;43.794;11.212;2024-02-21T20:51:45;22.25;;;20.50;;
1959;SDS011;980;43.794;11.212;2024-02-21T20:54:10;30.75;;;26.00;;
1959;SDS011;980;43.794;11.212;2024-02-21T20:56:36;31.50;;;28.00;;
1959;SDS011;980;43.794;11.212;2024-02-21T20:59:01;22.75;;;16.00;;
1959;SDS011;980;43.794;11.212;2024-02-21T21:01:26;30.25;;;29.00;;
1959;SDS011;980;43.794;11.212;2024-02-21T21:03:52;30.50;;;26.50;;
1959;SDS011;980;43.794;11.212;2024-02-21T21:06:17;30.00;;;25.00;;
1959;SDS011;980;43.794;11.212;2024-02-21T21:08:43;33.25;;;30.50;;
1959;SDS011;980;43.794;11.212;2024-02-21T21:11:09;41.00;;;36.75;;
1959;SDS011;980;43.794;11.212;2024-02-21T21:13:36;32.00;;;30.50;;
1959;SDS011;980;43.794;11.212;2024-02-21T21:16:01;38.00;;;30.75;;
1959;SDS011;980;43.794;11.212;2024-02-21T21:18:26;33.00;;;30.75;;
1959;SDS011;980;43.794;11.212;2024-02-21T21:20:54;36.25;;;27.25;;
1959;SDS011;980;43.794;11.212;2024-02-21T21:23:19;29.75;;;28.00;;
1959;SDS011;980;43.794;11.212;2024-02-21T21:25:44;32.25;;;31.00;;
1959;SDS011;980;43.794;11.212;2024-02-21T21:28:10;31.00;;;29.75;;
1959;SDS011;980;43.794;11.212;2024-02-21T21:30:35;31.50;;;26.25;;
1959;SDS011;980;43.794;11.212;2024-02-21T21:33:00;34.50;;;31.00;;
1959;SDS011;980;43.794;11.212;2024-02-21T21:35:26;34.50;;;31.00;;
1959;SDS011;980;43.794;11.212;2024-02-21T21:37:51;32.50;;;27.75;;
1959;SDS011;980;43.794;11.212;2024-02-21T21:40:17;27.50;;;27.00;;
1959;SDS011;980;43.794;11.212;2024-02-21T21:42:42;32.75;;;28.00;;
1959;SDS011;980;43.794;11.212;2024-02-21T21:45:08;31.00;;;30.00;;
1959;SDS011;980;43.794;11.212;2024-02-21T21:47:34;33.50;;;29.00;;
1959;SDS011;980;43.794;11.212;2024-02-21T21:49:59;33.50;;;30.25;;
1959;SDS011;980;43.794;11.212;2024-02-21T21:52:25;32.50;;;29.75;;
1959;SDS011;980;43.794;11.212;2024-02-21T21:54:50;33.25;;;29.75;;
1959;SDS011;980;43.794;11.212;2024-02-21T21:57:15;36.00;;;32.00;;
1959;SDS011;980;43.794;11.212;2024-02-21T21:59:40;34.50;;;32.00;;
1959;SDS011;980;43.794;11.212;2024-02-21T22:02:06;29.75;;;29.75;;
1959;SDS011;980;43.794;11.212;2024-02-21T22:04:31;28.25;;;26.50;;
1959;SDS011;980;43.794;11.212;2024-02-21T22:06:57;34.00;;;27.75;;
1959;SDS011;980;43.794;11.212;2024-02-21T22:09:22;30.25;;;27.00;;
1959;SDS011;980;43.794;11.212;2024-02-21T22:11:47;28.75;;;28.25;;
1959;SDS011;980;43.794;11.212;2024-02-21T22:14:13;29.00;;;26.00;;
1959;SDS011;980;43.794;11.212;2024-02-21T22:16:38;33.75;;;30.50;;
1959;SDS011;980;43.794;11.212;2024-02-21T22:19:03;36.50;;;30.25;;
1959;SDS011;980;43.794;11.212;2024-02-21T22:21:29;28.25;;;27.75;;
1959;SDS011;980;43.794;11.212;2024-02-21T22:23:54;33.00;;;30.00;;
1959;SDS011;980;43.794;11.212;2024-02-21T22:26:19;32.50;;;27.75;;
1959;SDS011;980;43.794;11.212;2024-02-21T22:28:45;27.75;;;27.25;;
1959;SDS011;980;43.794;11.212;2024-02-21T22:31:14;33.25;;;27.75;;
1959;SDS011;980;43.794;11.212;2024-02-21T22:33:40;29.00;;;28.25;;
1959;SDS011;980;43.794;11.212;2024-02-21T22:36:06;24.75;;;24.50;;
1959;SDS011;980;43.794;11.212;2024-02-21T22:38:31;27.25;;;26.50;;
1959;SDS011;980;43.794;11.212;2024-02-21T22:40:58;33.50;;;31.00;;
1959;SDS011;980;43.794;11.212;2024-02-21T22:43:23;31.50;;;29.75;;
1959;SDS011;980;43.794;11.212;2024-02-21T22:45:48;28.50;;;27.50;;
1959;SDS011;980;43.794;11.212;2024-02-21T22:48:14;32.00;;;29.25;;
1959;SDS011;980;43.794;11.212;2024-02-21T22:50:39;29.25;;;26.25;;
1959;SDS011;980;43.794;11.212;2024-02-21T22:53:05;31.75;;;27.00;;
1959;SDS011;980;43.794;11.212;2024-02-21T22:55:30;32.50;;;29.00;;
1959;SDS011;980;43.794;11.212;2024-02-21T22:57:55;28.25;;;25.75;;
1959;SDS011;980;43.794;11.212;2024-02-21T23:00:21;28.00;;;25.25;;
1959;SDS011;980;43.794;11.212;2024-02-21T23:02:46;26.00;;;26.00;;
1959;SDS011;980;43.794;11.212;2024-02-21T23:05:11;30.00;;;28.25;;
1959;SDS011;980;43.794;11.212;2024-02-21T23:07:37;30.00;;;28.25;;
1959;SDS011;980;43.794;11.212;2024-02-21T23:10:02;29.00;;;27.75;;
1959;SDS011;980;43.794;11.212;2024-02-21T23:12:28;25.25;;;24.75;;
1959;SDS011;980;43.794;11.212;2024-02-21T23:14:54;32.25;;;26.75;;
